Time;durP1;ratioP1;P1;durP2;ratioP2;P2;SDS_P1;SDS_P2;PMS_P1;PMS_P2;Temp;Humidity;BMP_temperature;BMP_pressure;BME280_temperature;BME280_humidity;BME280_pressure;Samples;Min_cycle;Max_cycle;Signal;HPM_P1;HPM_P2
2023/05/31 00:00:18;;;;;;;14.63;6.85;;;;;;;14.37;100.00;94571.91;5056127;28;20119;-84
2023/05/31 00:02:44;;;;;;;14.73;6.35;;;;;;;14.67;100.00;94583.06;5022036;28;20033;-84
2023/05/31 00:05:09;;;;;;;9.95;6.50;;;;;;;14.70;100.00;94579.88;5038392;28;20031;-83
2023/05/31 00:07:35;;;;;;;11.15;6.72;;;;;;;14.84;100.00;94573.88;5022010;28;20017;-84
2023/05/31 00:10:00;;;;;;;13.93;6.80;;;;;;;14.72;100.00;94581.47;5038389;28;20084;-83
2023/05/31 00:12:26;;;;;;;9.30;5.53;;;;;;;14.86;100.00;94589.41;5022076;28;20047;-83
2023/05/31 00:14:59;;;;;;;9.90;5.93;;;;;;;14.81;100.00;94580.53;5038410;28;20028;-84
2023/05/31 00:20:27;;;;;;;8.57;5.72;;;;;;;15.22;100.00;94592.25;5057723;28;20032;-84
2023/05/31 00:23:11;;;;;;;10.40;5.50;;;;;;;15.36;100.00;94597.56;5025645;28;20355;-84
2023/05/31 00:25:36;;;;;;;8.45;5.20;;;;;;;15.51;100.00;94598.34;5041488;28;20457;-84
2023/05/31 00:28:21;;;;;;;13.10;5.45;;;;;;;15.43;100.00;94602.44;5025378;28;20028;-84
2023/05/31 00:31:24;;;;;;;8.32;5.75;;;;;;;15.38;100.00;94608.59;5041889;28;20021;-84
2023/05/31 00:33:49;;;;;;;10.63;5.60;;;;;;;15.57;100.00;94614.88;5059706;28;20048;-83
2023/05/31 00:41:43;;;;;;;11.85;5.78;;;;;;;15.59;100.00;94605.56;5044179;28;20044;-84
2023/05/31 00:44:08;;;;;;;13.10;5.82;;;;;;;15.56;100.00;94616.72;5047400;28;20376;-88
2023/05/31 00:46:36;;;;;;;13.75;6.18;;;;;;;15.48;100.00;94612.13;5025182;28;20021;-84
2023/05/31 00:49:02;;;;;;;10.80;6.93;;;;;;;15.56;100.00;94608.81;5041612;28;20056;-84
2023/05/31 00:51:30;;;;;;;10.57;5.53;;;;;;;15.80;100.00;94610.50;5069970;28;20028;-83
2023/05/31 00:53:57;;;;;;;11.35;6.22;;;;;;;15.91;100.00;94603.16;5061507;28;20082;-84
2023/05/31 00:56:41;;;;;;;11.02;5.97;;;;;;;15.85;100.00;94599.81;5061293;28;20020;-83
2023/05/31 00:59:25;;;;;;;11.48;5.95;;;;;;;15.56;100.00;94600.88;5061320;28;20020;-83
2023/05/31 01:01:51;;;;;;;9.88;6.30;;;;;;;15.68;100.00;94603.84;5061127;28;20028;-84
2023/05/31 01:04:17;;;;;;;11.75;6.53;;;;;;;15.69;100.00;94599.31;5079053;28;20388;-83
2023/05/31 01:06:42;;;;;;;10.15;6.55;;;;;;;15.47;100.00;94594.72;5061131;28;20082;-84
2023/05/31 01:09:08;;;;;;;10.75;6.70;;;;;;;15.59;100.00;94596.88;5063942;28;20099;-84
2023/05/31 01:12:07;;;;;;;10.77;7.03;;;;;;;15.57;100.00;94593.75;5023549;28;20029;-84
2023/05/31 01:15:09;;;;;;;15.57;7.32;;;;;;;15.03;100.00;94592.28;5057543;28;20029;-84
2023/05/31 01:17:40;;;;;;;15.98;7.05;;;;;;;15.19;100.00;94594.66;5038928;28;20329;-84
2023/05/31 01:20:11;;;;;;;13.45;6.45;;;;;;;15.17;100.00;94586.25;5057338;28;20056;-84
2023/05/31 01:22:43;;;;;;;12.75;7.47;;;;;;;15.28;100.00;94592.94;5023251;28;20532;-84
2023/05/31 01:25:27;;;;;;;13.52;8.20;;;;;;;15.13;100.00;94586.06;5056829;28;20059;-84
2023/05/31 01:27:54;;;;;;;15.07;8.13;;;;;;;15.19;100.00;94599.94;5056945;28;20055;-84
2023/05/31 01:30:21;;;;;;;17.15;8.88;;;;;;;15.32;100.00;94601.84;5039148;28;20036;-84
2023/05/31 01:33:24;;;;;;;18.70;8.85;;;;;;;15.21;100.00;94601.22;5039234;28;20348;-83
2023/05/31 01:35:49;;;;;;;12.70;8.10;;;;;;;15.30;100.00;94606.63;5056462;28;20112;-84
2023/05/31 01:40:59;;;;;;;16.73;8.82;;;;;;;15.53;100.00;94610.16;5056868;28;20068;-84
2023/05/31 01:43:26;;;;;;;16.35;8.57;;;;;;;15.30;100.00;94600.56;5022406;28;20064;-84
2023/05/31 01:48:59;;;;;;;13.07;7.50;;;;;;;15.36;100.00;94599.41;5056866;28;20058;-84
2023/05/31 01:51:25;;;;;;;15.23;8.55;;;;;;;15.23;100.00;94596.44;5038689;28;20342;-84
2023/05/31 01:53:50;;;;;;;15.38;7.93;;;;;;;15.45;100.00;94600.31;5038649;28;20025;-83
2023/05/31 01:59:06;;;;;;;11.20;7.40;;;;;;;15.67;100.00;94596.19;5041506;28;20374;-84
2023/05/31 02:01:31;;;;;;;12.20;7.55;;;;;;;15.51;100.00;94591.19;5038980;28;20040;-84
2023/05/31 02:03:57;;;;;;;14.43;8.02;;;;;;;15.12;100.00;94600.31;5022557;28;20028;-84
2023/05/31 02:06:26;;;;;;;14.13;8.20;;;;;;;15.26;100.00;94589.81;5038460;28;20330;-84
2023/05/31 02:08:52;;;;;;;13.20;7.57;;;;;;;15.26;100.00;94592.44;5022834;28;20020;-84
2023/05/31 02:11:36;;;;;;;11.27;6.93;;;;;;;15.36;100.00;94592.28;5038514;28;20024;-84
2023/05/31 02:14:02;;;;;;;12.90;7.65;;;;;;;15.37;100.00;94591.19;5038755;28;20064;-84
2023/05/31 02:16:27;;;;;;;11.77;6.80;;;;;;;15.43;100.00;94583.19;5021925;28;20116;-84
2023/05/31 02:18:52;;;;;;;13.45;7.35;;;;;;;15.39;100.00;94590.88;5038374;28;20051;-84
2023/05/31 02:21:18;;;;;;;15.95;8.52;;;;;;;15.31;100.00;94586.31;5038287;28;20155;-84
2023/05/31 02:23:43;;;;;;;18.10;8.27;;;;;;;15.11;100.00;94582.94;5038494;28;20127;-84
2023/05/31 02:29:12;;;;;;;17.02;7.80;;;;;;;15.00;100.00;94581.56;5056007;28;20040;-84
2023/05/31 02:31:37;;;;;;;16.38;8.73;;;;;;;15.04;100.00;94593.84;5037922;28;20025;-84
2023/05/31 02:34:21;;;;;;;13.65;7.88;;;;;;;15.17;100.00;94600.25;5038230;28;20335;-84
2023/05/31 02:37:06;;;;;;;12.50;7.88;;;;;;;15.18;100.00;94596.53;5037778;28;20036;-83
2023/05/31 02:39:31;;;;;;;14.20;8.13;;;;;;;15.15;100.00;94594.50;5037638;28;20027;-84
2023/05/31 02:42:15;;;;;;;14.35;7.85;;;;;;;14.97;100.00;94590.81;5036848;28;20028;-84
2023/05/31 02:47:27;;;;;;;14.00;8.02;;;;;;;14.79;100.00;94590.59;5038877;28;20107;-83
2023/05/31 02:50:11;;;;;;;13.80;7.80;;;;;;;14.85;100.00;94586.00;5038138;28;20028;-84
2023/05/31 02:52:55;;;;;;;16.15;7.90;;;;;;;14.84;100.00;94594.97;5039704;28;20017;-84
2023/05/31 02:55:22;;;;;;;15.38;8.20;;;;;;;14.82;100.00;94586.56;5056580;28;20033;-84
2023/05/31 02:57:47;;;;;;;17.60;8.43;;;;;;;14.84;100.00;94581.78;5022513;28;20112;-84
2023/05/31 03:00:32;;;;;;;14.30;8.00;;;;;;;14.83;100.00;94580.22;5022799;28;20441;-84
2023/05/31 03:03:18;;;;;;;15.27;7.97;;;;;;;14.46;100.00;94574.69;5047236;28;20032;-84
2023/05/31 03:05:43;;;;;;;16.63;7.72;;;;;;;14.75;100.00;94580.88;5034513;28;20358;-84
2023/05/31 03:08:09;;;;;;;12.85;7.40;;;;;;;14.56;100.00;94576.38;5038946;28;20024;-84
2023/05/31 03:10:34;;;;;;;12.68;7.65;;;;;;;14.52;100.00;94578.81;5042691;28;20033;-84
2023/05/31 03:13:00;;;;;;;16.60;7.07;;;;;;;14.47;100.00;94578.88;5055424;28;20024;-84
2023/05/31 03:15:28;;;;;;;14.68;8.07;;;;;;;14.39;100.00;94582.94;5042405;28;20025;-84
2023/05/31 03:17:53;;;;;;;17.77;8.50;;;;;;;14.10;100.00;94581.25;5042062;28;20032;-84
2023/05/31 03:20:22;;;;;;;12.38;7.32;;;;;;;14.04;100.00;94573.69;5058706;28;20456;-84
2023/05/31 03:22:48;;;;;;;14.32;8.23;;;;;;;14.22;100.00;94570.28;5076364;28;20025;-84
2023/05/31 03:28:17;;;;;;;14.15;7.82;;;;;;;14.06;100.00;94572.34;5061480;28;20031;-84
2023/05/31 03:30:43;;;;;;;14.43;7.90;;;;;;;14.11;100.00;94563.59;5058614;28;20376;-84
2023/05/31 03:33:10;;;;;;;13.45;7.75;;;;;;;14.08;100.00;94570.19;5057931;28;20078;-84
2023/05/31 03:35:35;;;;;;;17.60;8.30;;;;;;;13.96;100.00;94569.84;5058319;28;20039;-84
2023/05/31 03:38:01;;;;;;;23.52;8.60;;;;;;;14.00;100.00;94562.94;5041709;28;20345;-84
2023/05/31 03:40:26;;;;;;;16.02;8.15;;;;;;;13.78;100.00;94568.75;5076341;28;20396;-84
2023/05/31 03:42:51;;;;;;;15.57;7.65;;;;;;;13.98;100.00;94573.75;5058456;28;20039;-84
2023/05/31 03:45:17;;;;;;;21.23;8.38;;;;;;;14.05;100.00;94575.25;5042473;28;20025;-84
2023/05/31 03:48:01;;;;;;;19.80;8.85;;;;;;;13.90;100.00;94574.38;5058186;28;20075;-84
2023/05/31 03:50:45;;;;;;;19.17;8.27;;;;;;;13.99;100.00;94572.69;5058485;28;20111;-84
2023/05/31 03:53:48;;;;;;;14.68;7.60;;;;;;;14.05;100.00;94573.41;5076366;28;20029;-84
2023/05/31 03:56:32;;;;;;;14.70;8.13;;;;;;;13.93;100.00;94576.47;5062173;28;20078;-84
2023/05/31 03:58:57;;;;;;;16.60;7.93;;;;;;;14.15;100.00;94585.66;5062509;28;20027;-84
2023/05/31 04:01:23;;;;;;;12.98;7.80;;;;;;;14.31;100.00;94583.59;5045825;28;20037;-84
2023/05/31 04:04:07;;;;;;;18.00;8.95;;;;;;;14.02;100.00;94581.88;5045901;28;20016;-84
2023/05/31 04:06:52;;;;;;;12.10;6.97;;;;;;;14.38;100.00;94591.16;5080035;28;20082;-84
2023/05/31 04:09:17;;;;;;;13.15;7.50;;;;;;;14.65;100.00;94587.09;5062217;28;20372;-84
2023/05/31 04:11:44;;;;;;;18.73;7.70;;;;;;;14.55;100.00;94588.78;5062323;28;20070;-84
2023/05/31 04:16:54;;;;;;;15.35;8.20;;;;;;;14.60;100.00;94585.31;5079882;28;20142;-84
2023/05/31 04:19:19;;;;;;;13.13;7.32;;;;;;;14.80;100.00;94591.34;5062034;28;20032;-84
2023/05/31 04:21:45;;;;;;;16.85;7.97;;;;;;;14.81;100.00;94598.19;5061946;28;20028;-84
2023/05/31 04:24:29;;;;;;;14.82;7.95;;;;;;;14.46;100.00;94589.72;5062110;28;20035;-84
2023/05/31 04:26:55;;;;;;;13.02;7.40;;;;;;;14.88;100.00;94589.91;5061779;28;20024;-84
2023/05/31 04:29:21;;;;;;;13.48;7.25;;;;;;;15.08;100.00;94594.88;5054327;28;20024;-83
2023/05/31 04:31:47;;;;;;;16.73;8.32;;;;;;;15.26;100.00;94598.50;5054763;28;20029;-83
2023/05/31 04:39:40;;;;;;;15.85;8.40;;;;;;;14.92;100.00;94596.97;5064520;28;20055;-83
2023/05/31 04:42:11;;;;;;;18.02;7.70;;;;;;;15.20;100.00;94604.16;5079296;28;20115;-83
2023/05/31 04:44:37;;;;;;;17.27;8.40;;;;;;;14.79;100.00;94606.41;5079502;28;20074;-83
2023/05/31 04:47:04;;;;;;;16.75;7.57;;;;;;;14.87;100.00;94598.91;5079056;28;20028;-83
2023/05/31 04:49:48;;;;;;;16.00;8.15;;;;;;;15.04;100.00;94607.06;5049241;28;20319;-81
2023/05/31 04:52:14;;;;;;;17.88;7.90;;;;;;;15.46;100.00;94611.63;5041471;28;20036;-81
2023/05/31 04:57:42;;;;;;;14.23;7.25;;;;;;;15.73;100.00;94616.16;5079221;28;20066;-81
2023/05/31 05:00:10;;;;;;;13.30;7.32;;;;;;;15.92;100.00;94613.44;5061250;28;20335;-81
2023/05/31 05:02:35;;;;;;;15.02;8.57;;;;;;;16.11;100.00;94610.66;5044889;28;20086;-81
2023/05/31 05:05:01;;;;;;;14.68;8.35;;;;;;;16.32;100.00;94610.25;5060939;28;20437;-82
2023/05/31 05:08:04;;;;;;;15.38;7.47;;;;;;;16.20;100.00;94608.09;5056993;28;20139;-81
2023/05/31 05:10:48;;;;;;;16.83;7.75;;;;;;;16.64;100.00;94603.19;5078927;28;20021;-82
2023/05/31 05:13:33;;;;;;;22.05;7.78;;;;;;;16.60;100.00;94612.03;5061266;28;20493;-82
2023/05/31 05:18:42;;;;;;;18.08;9.32;;;;;;;15.94;100.00;94607.84;5043790;28;20039;-82
2023/05/31 05:21:08;;;;;;;18.88;8.30;;;;;;;15.59;100.00;94607.44;5040912;28;20029;-82
2023/05/31 05:23:34;;;;;;;14.30;7.90;;;;;;;16.24;100.00;94610.94;5024457;28;20028;-82
2023/05/31 05:28:44;;;;;;;17.55;7.28;;;;;;;16.23;100.00;94601.44;5043538;28;20484;-82
2023/05/31 05:31:28;;;;;;;16.42;6.80;;;;;;;15.51;100.00;94607.03;5040660;28;20025;-82
2023/05/31 05:33:54;;;;;;;17.65;8.90;;;;;;;15.90;100.00;94602.38;5040738;28;20029;-82
2023/05/31 05:36:19;;;;;;;15.15;7.90;;;;;;;15.99;100.00;94599.03;5040340;28;20028;-82
2023/05/31 05:38:45;;;;;;;14.75;6.95;;;;;;;16.16;100.00;94617.72;5040752;28;20115;-82
2023/05/31 05:43:54;;;;;;;19.73;8.43;;;;;;;15.34;100.00;94626.06;5061649;28;20090;-82
2023/05/31 05:46:20;;;;;;;19.08;7.85;;;;;;;14.91;100.00;94626.25;5078204;28;20028;-81
2023/05/31 05:51:48;;;;;;;16.55;8.35;;;;;;;15.69;100.00;94638.94;5062897;28;20111;-81
2023/05/31 05:54:14;;;;;;;15.90;8.50;;;;;;;16.08;100.00;94639.56;5060263;28;20033;-82
2023/05/31 05:59:24;;;;;;;14.63;7.97;;;;;;;16.37;100.00;94646.38;5062867;28;20039;-82
2023/05/31 06:01:50;;;;;;;18.30;7.03;;;;;;;16.03;100.00;94648.38;5077870;28;20032;-82
2023/05/31 06:04:34;;;;;;;10.60;6.35;;;;;;;16.58;100.00;94646.72;5060525;28;20024;-81
2023/05/31 06:06:59;;;;;;;13.63;7.63;;;;;;;16.29;100.00;94649.72;5078014;28;20024;-82
2023/05/31 06:09:24;;;;;;;15.02;8.35;;;;;;;16.95;100.00;94649.34;5060097;28;20025;-81
2023/05/31 06:11:50;;;;;;;13.15;7.88;;;;;;;17.48;100.00;94641.72;5060032;28;20342;-82
2023/05/31 06:14:15;;;;;;;17.52;8.52;;;;;;;17.19;100.00;94645.63;5077527;28;20031;-82
2023/05/31 06:16:41;;;;;;;15.85;7.93;;;;;;;17.49;100.00;94651.25;5077291;28;20094;-82
2023/05/31 06:19:06;;;;;;;16.15;8.18;;;;;;;17.09;100.00;94644.81;5042581;28;20017;-81
2023/05/31 06:21:31;;;;;;;11.55;7.65;;;;;;;17.52;100.00;94642.72;5059748;28;20025;-81
2023/05/31 06:23:57;;;;;;;16.92;8.25;;;;;;;17.17;100.00;94639.84;5059659;28;20024;-81
2023/05/31 06:26:22;;;;;;;12.98;7.75;;;;;;;17.45;100.00;94640.50;5059567;28;20035;-81
2023/05/31 06:28:48;;;;;;;14.88;7.95;;;;;;;17.56;100.00;94648.94;5059714;28;20074;-81
2023/05/31 06:31:13;;;;;;;24.13;8.23;;;;;;;17.53;100.00;94646.91;5059634;28;20024;-81
2023/05/31 06:33:57;;;;;;;14.38;8.07;;;;;;;17.60;100.00;94641.94;5059622;28;20020;-81
2023/05/31 06:36:23;;;;;;;16.45;7.10;;;;;;;17.64;100.00;94644.78;5059558;28;20031;-82
2023/05/31 06:38:48;;;;;;;16.13;7.43;;;;;;;17.93;100.00;94644.28;5059477;28;20426;-81
2023/05/31 06:44:16;;;;;;;12.88;7.43;;;;;;;18.01;100.00;94645.41;5077280;28;20079;-81
2023/05/31 06:46:42;;;;;;;12.52;7.40;;;;;;;17.45;100.00;94647.63;5058888;28;20074;-82
2023/05/31 06:49:07;;;;;;;11.77;6.93;;;;;;;17.73;100.00;94644.81;5059485;28;20024;-82
2023/05/31 06:51:33;;;;;;;14.15;7.20;;;;;;;17.77;100.00;94640.47;5077062;28;20024;-82
2023/05/31 06:54:00;;;;;;;14.50;6.78;;;;;;;17.81;100.00;94650.13;5042741;28;20028;-82
2023/05/31 06:56:27;;;;;;;18.98;7.03;;;;;;;17.44;100.00;94648.72;5042754;28;20032;-82
2023/05/31 06:58:52;;;;;;;13.38;6.55;;;;;;;17.56;100.00;94648.16;5059392;28;20303;-82
2023/05/31 07:07:24;;;;;;;12.70;5.85;;;;;;;17.76;100.00;94657.44;5076747;28;20036;-82
2023/05/31 07:12:33;;;;;;;14.13;6.75;;;;;;;17.12;100.00;94648.69;5061681;28;20040;-82
2023/05/31 07:14:59;;;;;;;15.00;6.85;;;;;;;16.90;100.00;94644.94;5058932;28;20032;-82
2023/05/31 07:17:24;;;;;;;10.68;6.22;;;;;;;17.10;100.00;94646.38;5058658;28;20366;-82
2023/05/31 07:19:50;;;;;;;12.18;6.03;;;;;;;17.44;100.00;94648.72;5042396;28;20028;-82
2023/05/31 07:22:16;;;;;;;11.15;6.68;;;;;;;17.89;100.00;94653.16;5058769;28;20116;-81
2023/05/31 07:24:43;;;;;;;12.45;6.78;;;;;;;17.64;100.00;94648.19;5058781;28;20029;-82
2023/05/31 07:27:08;;;;;;;12.80;6.82;;;;;;;17.96;100.00;94648.16;5041965;28;20342;-82
2023/05/31 07:29:35;;;;;;;13.68;7.28;;;;;;;17.42;100.00;94643.72;5058578;28;20031;-82
2023/05/31 07:32:00;;;;;;;13.32;6.43;;;;;;;18.03;100.00;94653.06;5042285;28;20032;-82
2023/05/31 07:34:26;;;;;;;21.83;7.53;;;;;;;18.43;100.00;94641.59;5058659;28;20033;-83
2023/05/31 07:40:15;;;;;;;15.18;6.95;;;;;;;18.47;100.00;94639.91;5076569;28;20039;-83
2023/05/31 07:42:59;;;;;;;16.73;6.70;;;;;;;19.24;100.00;94638.63;5058874;28;20434;-83
2023/05/31 07:45:44;;;;;;;14.75;5.80;;;;;;;19.84;100.00;94644.88;5058469;28;20346;-84
2023/05/31 07:48:09;;;;;;;12.07;6.03;;;;;;;19.69;100.00;94643.50;5058679;28;20036;-84
2023/05/31 07:50:35;;;;;;;13.48;5.50;;;;;;;19.36;100.00;94647.50;5058502;28;20446;-84
2023/05/31 07:56:22;;;;;;;12.23;5.65;;;;;;;19.48;100.00;94643.41;5061036;28;20039;-84
2023/05/31 07:58:47;;;;;;;9.63;5.63;;;;;;;19.34;100.00;94643.63;5058617;28;20031;-85
2023/05/31 08:01:13;;;;;;;12.68;6.20;;;;;;;19.00;100.00;94643.34;5041855;28;20037;-84
2023/05/31 08:03:59;;;;;;;13.40;5.88;;;;;;;19.12;100.00;94637.41;5058450;28;20388;-85
2023/05/31 08:06:25;;;;;;;12.13;6.35;;;;;;;20.22;100.00;94643.28;5076117;28;20039;-84
2023/05/31 08:09:28;;;;;;;13.43;6.03;;;;;;;19.55;100.00;94642.94;5076255;28;20028;-83
2023/05/31 08:11:53;;;;;;;11.27;5.85;;;;;;;19.98;100.00;94641.25;5076206;28;20044;-84
2023/05/31 08:14:18;;;;;;;15.50;6.47;;;;;;;20.26;100.00;94640.78;5076217;28;20345;-84
2023/05/31 08:17:03;;;;;;;10.80;6.00;;;;;;;20.26;100.00;94643.44;5058098;28;20028;-83
2023/05/31 08:22:31;;;;;;;20.85;6.00;;;;;;;20.81;100.00;94644.34;5060930;28;20081;-84
2023/05/31 08:24:56;;;;;;;12.32;5.80;;;;;;;21.23;100.00;94648.06;5058302;28;20068;-84
2023/05/31 08:27:23;;;;;;;11.18;5.97;;;;;;;20.80;100.00;94645.41;5041413;28;20126;-84
2023/05/31 08:29:48;;;;;;;10.52;5.70;;;;;;;20.85;100.00;94653.22;5058285;28;20035;-84
2023/05/31 08:34:58;;;;;;;13.63;5.53;;;;;;;21.83;99.29;94645.88;5060868;28;20040;-84
2023/05/31 08:37:23;;;;;;;10.15;6.00;;;;;;;20.86;100.00;94648.69;5075846;28;20349;-83
2023/05/31 08:39:49;;;;;;;11.55;5.80;;;;;;;21.58;100.00;94645.81;5058017;28;20434;-84
2023/05/31 08:45:28;;;;;;;16.40;5.72;;;;;;;21.29;100.00;94646.72;5079569;28;20067;-84
2023/05/31 08:48:11;;;;;;;12.13;6.30;;;;;;;20.66;100.00;94647.56;5061985;28;20533;-84
2023/05/31 08:50:36;;;;;;;11.25;5.43;;;;;;;21.21;100.00;94651.03;5061618;28;20055;-84
2023/05/31 08:53:21;;;;;;;12.00;5.97;;;;;;;20.62;100.00;94647.41;5061512;28;20021;-84
2023/05/31 08:55:48;;;;;;;9.35;5.35;;;;;;;20.24;100.00;94635.78;5078910;28;20404;-84
2023/05/31 08:58:14;;;;;;;11.40;5.53;;;;;;;19.66;100.00;94643.38;5061663;28;20036;-84
2023/05/31 09:00:39;;;;;;;12.65;6.00;;;;;;;19.38;100.00;94633.91;5044831;28;20032;-84
2023/05/31 09:03:06;;;;;;;12.63;5.88;;;;;;;19.85;100.00;94638.44;5061114;28;20064;-84
2023/05/31 09:05:31;;;;;;;14.20;6.07;;;;;;;19.39;100.00;94640.03;5044769;28;20105;-84
2023/05/31 09:10:42;;;;;;;12.27;6.18;;;;;;;21.56;100.00;94640.03;5064255;28;20063;-84
2023/05/31 09:13:08;;;;;;;9.18;5.53;;;;;;;21.50;96.48;94638.66;5061254;28;20362;-85
2023/05/31 09:15:36;;;;;;;8.82;5.45;;;;;;;21.46;100.00;94633.25;5044822;28;20052;-84
2023/05/31 09:18:19;;;;;;;10.27;5.40;;;;;;;21.46;99.92;94638.56;5078925;28;20069;-84
2023/05/31 09:20:46;;;;;;;10.30;5.78;;;;;;;19.78;100.00;94638.16;5061083;28;20139;-84
2023/05/31 09:23:12;;;;;;;10.57;5.82;;;;;;;20.25;100.00;94647.22;5044440;28;20123;-84
2023/05/31 09:25:49;;;;;;;11.48;5.97;;;;;;;19.84;100.00;94646.72;5044042;28;20066;-84
2023/05/31 09:28:15;;;;;;;9.57;5.97;;;;;;;20.43;100.00;94645.19;5044113;28;20036;-84
2023/05/31 09:30:41;;;;;;;9.70;5.32;;;;;;;19.99;100.00;94645.47;5043849;28;20346;-84
2023/05/31 09:33:10;;;;;;;15.05;5.65;;;;;;;20.97;100.00;94643.72;5042941;28;20088;-84
2023/05/31 09:35:36;;;;;;;11.55;6.00;;;;;;;20.95;100.00;94645.94;5042783;28;20126;-84
2023/05/31 09:38:05;;;;;;;13.63;5.50;;;;;;;21.03;100.00;94639.78;5059320;28;20032;-84
2023/05/31 09:40:32;;;;;;;10.63;5.95;;;;;;;20.59;100.00;94634.75;5059573;28;20028;-83
2023/05/31 09:42:58;;;;;;;13.40;6.03;;;;;;;21.20;100.00;94630.81;5037643;28;20032;-81
2023/05/31 09:45:24;;;;;;;12.77;6.10;;;;;;;21.12;95.72;94645.03;5038074;28;20032;-82
2023/05/31 09:47:49;;;;;;;13.15;6.30;;;;;;;21.41;100.00;94632.66;5036046;28;20032;-82
2023/05/31 09:50:17;;;;;;;9.55;5.32;;;;;;;21.24;93.66;94620.28;5046790;28;20028;-82
2023/05/31 09:52:46;;;;;;;11.23;6.28;;;;;;;20.93;100.00;94630.28;5040195;28;20021;-82
2023/05/31 09:55:14;;;;;;;10.50;5.60;;;;;;;20.82;100.00;94627.25;5024104;28;20029;-82
2023/05/31 09:57:40;;;;;;;13.02;5.30;;;;;;;20.51;99.76;94627.59;5040282;28;20123;-82
2023/05/31 10:00:17;;;;;;;9.60;5.45;;;;;;;20.02;100.00;94628.84;5040248;28;20035;-83
2023/05/31 10:02:44;;;;;;;11.35;5.78;;;;;;;20.52;100.00;94629.97;5041439;28;20037;-82
2023/05/31 10:05:11;;;;;;;20.50;6.45;;;;;;;20.51;100.00;94624.94;5023904;28;20392;-82
2023/05/31 10:07:41;;;;;;;10.25;6.03;;;;;;;21.38;100.00;94617.34;5040262;28;20033;-82
2023/05/31 10:10:08;;;;;;;12.65;6.05;;;;;;;20.82;91.84;94621.16;5040472;28;20029;-82
2023/05/31 10:12:54;;;;;;;12.02;5.05;;;;;;;21.64;100.00;94622.38;5040028;28;20115;-82
2023/05/31 10:15:25;;;;;;;12.93;5.63;;;;;;;20.73;88.46;94619.31;5039792;28;20032;-82
2023/05/31 10:21:00;;;;;;;15.27;6.03;;;;;;;20.41;87.84;94631.44;5042640;28;20031;-82
2023/05/31 10:26:15;;;;;;;11.20;5.13;;;;;;;21.61;88.59;94623.81;5042130;28;20040;-82
2023/05/31 10:29:06;;;;;;;9.43;5.45;;;;;;;21.51;88.61;94616.22;5039811;28;20024;-82
2023/05/31 10:31:38;;;;;;;10.18;4.97;;;;;;;22.39;87.77;94625.03;5023385;28;20451;-82
2023/05/31 10:34:14;;;;;;;10.63;5.95;;;;;;;22.48;87.18;94630.28;5039939;28;20323;-82
2023/05/31 10:36:40;;;;;;;8.75;5.00;;;;;;;21.85;84.48;94622.31;5039493;28;20024;-82
2023/05/31 10:39:11;;;;;;;10.07;5.38;;;;;;;21.86;88.53;94626.53;5057316;28;20348;-82
2023/05/31 10:41:43;;;;;;;9.32;5.70;;;;;;;22.26;81.01;94618.97;5022909;28;20029;-82
2023/05/31 10:44:31;;;;;;;13.47;6.37;;;;;;;22.78;93.00;94625.44;5039659;28;20029;-82
2023/05/31 10:47:18;;;;;;;11.95;5.65;;;;;;;21.95;90.66;94618.41;5056956;28;20025;-82
2023/05/31 10:49:45;;;;;;;8.85;5.82;;;;;;;21.55;82.30;94616.34;5057061;28;20035;-82
2023/05/31 10:52:10;;;;;;;9.18;5.20;;;;;;;21.59;88.98;94617.25;5039333;28;20020;-82
2023/05/31 10:54:36;;;;;;;9.48;5.60;;;;;;;21.59;89.70;94618.03;5039448;28;20017;-82
2023/05/31 10:57:20;;;;;;;13.07;5.70;;;;;;;22.23;84.85;94619.63;5022290;28;20024;-82
2023/05/31 10:59:46;;;;;;;11.57;5.70;;;;;;;22.84;77.43;94609.94;5039020;28;20025;-82
2023/05/31 11:02:11;;;;;;;10.35;5.80;;;;;;;21.93;75.09;94612.66;5039152;28;20028;-82
2023/05/31 11:04:37;;;;;;;10.82;5.75;;;;;;;21.78;95.09;94622.06;5038572;28;20028;-82
2023/05/31 11:10:10;;;;;;;14.25;6.28;;;;;;;20.65;91.30;94612.16;5056903;28;20035;-82
2023/05/31 11:12:37;;;;;;;10.65;5.07;;;;;;;21.51;92.79;94599.47;5039179;28;20020;-82
2023/05/31 11:15:22;;;;;;;15.07;7.00;;;;;;;20.65;95.46;94617.47;5038791;28;20501;-82
2023/05/31 11:18:07;;;;;;;12.43;6.00;;;;;;;20.82;94.97;94616.59;5056723;28;20036;-82
2023/05/31 11:20:34;;;;;;;10.60;5.75;;;;;;;21.60;96.64;94597.50;5022683;28;20116;-82
2023/05/31 11:23:18;;;;;;;10.85;6.07;;;;;;;21.84;89.80;94618.09;5038679;28;20075;-82
2023/05/31 11:29:03;;;;;;;12.10;6.25;;;;;;;21.10;87.68;94602.72;5056635;28;20032;-82
2023/05/31 11:31:58;;;;;;;14.57;6.88;;;;;;;20.72;90.43;94620.41;5038930;28;20021;-82
2023/05/31 11:34:25;;;;;;;13.88;7.45;;;;;;;20.11;91.95;94610.97;5056784;28;20098;-81
2023/05/31 11:36:51;;;;;;;17.40;7.93;;;;;;;20.59;91.65;94621.47;5038280;28;20315;-82
2023/05/31 11:39:20;;;;;;;12.02;6.95;;;;;;;21.45;99.87;94615.69;5022436;28;20032;-82
2023/05/31 11:41:46;;;;;;;16.83;7.55;;;;;;;21.51;83.91;94602.91;5038526;28;20346;-82
2023/05/31 11:44:11;;;;;;;14.57;6.45;;;;;;;21.72;89.00;94602.09;5038568;28;20025;-82
2023/05/31 11:49:24;;;;;;;13.85;7.03;;;;;;;19.92;100.00;94601.53;5061368;28;20040;-82
2023/05/31 11:51:49;;;;;;;12.10;6.47;;;;;;;20.61;100.00;94605.94;5058793;28;20024;-82
2023/05/31 11:54:16;;;;;;;15.13;7.30;;;;;;;21.33;93.36;94599.69;5058523;28;20036;-81
2023/05/31 11:59:27;;;;;;;12.57;6.70;;;;;;;21.69;88.55;94602.75;5061081;28;20035;-82
2023/05/31 12:01:58;;;;;;;13.95;5.85;;;;;;;21.97;85.33;94594.84;5058929;28;20115;-81
2023/05/31 12:04:28;;;;;;;17.45;6.90;;;;;;;22.06;83.54;94594.72;5042317;28;20032;-82
2023/05/31 12:06:54;;;;;;;14.45;6.65;;;;;;;22.15;79.71;94586.59;5041925;28;20024;-82
2023/05/31 12:09:23;;;;;;;18.10;6.85;;;;;;;21.73;84.55;94576.97;5058429;28;20491;-82
2023/05/31 12:11:48;;;;;;;11.73;7.25;;;;;;;21.66;87.07;94582.84;5058374;28;20126;-82
2023/05/31 12:14:33;;;;;;;13.25;6.28;;;;;;;22.70;82.70;94589.75;5058366;28;20028;-82
2023/05/31 12:17:21;;;;;;;14.73;6.82;;;;;;;22.18;83.88;94585.94;5044408;28;20028;-82
2023/05/31 12:19:47;;;;;;;13.40;6.10;;;;;;;22.79;82.27;94586.13;5080085;28;20028;-82
2023/05/31 12:22:13;;;;;;;13.80;7.18;;;;;;;23.60;74.58;94584.38;5062100;28;20111;-82
2023/05/31 12:24:48;;;;;;;12.88;6.32;;;;;;;23.35;76.46;94580.00;5062111;28;20111;-82
2023/05/31 12:27:15;;;;;;;10.60;6.07;;;;;;;21.86;83.67;94591.88;5061666;28;20024;-82
2023/05/31 12:29:40;;;;;;;16.00;6.82;;;;;;;21.39;94.90;94584.25;5062070;28;20024;-82
2023/05/31 12:32:06;;;;;;;12.25;6.93;;;;;;;21.72;99.75;94586.09;5045487;28;20364;-81
2023/05/31 12:37:22;;;;;;;12.00;6.70;;;;;;;22.43;95.55;94569.88;5064424;28;20476;-82
2023/05/31 12:39:48;;;;;;;13.73;6.95;;;;;;;22.20;82.62;94573.06;5079618;28;20138;-82
2023/05/31 12:42:14;;;;;;;13.85;6.90;;;;;;;22.28;95.82;94564.13;5079559;28;20033;-82
2023/05/31 12:44:43;;;;;;;12.27;5.93;;;;;;;23.46;90.58;94561.53;5061918;28;20024;-82
2023/05/31 12:47:08;;;;;;;12.43;5.95;;;;;;;23.16;80.50;94553.91;5079396;28;20024;-82
2023/05/31 12:49:35;;;;;;;12.32;6.10;;;;;;;23.05;78.33;94561.66;5045130;28;20031;-82
2023/05/31 12:54:52;;;;;;;15.48;6.15;;;;;;;22.30;87.00;94555.78;5064304;28;20107;-82
2023/05/31 12:57:37;;;;;;;10.80;6.93;;;;;;;22.90;78.16;94554.38;5044286;28;20028;-82
2023/05/31 13:00:24;;;;;;;15.70;6.72;;;;;;;21.97;83.13;94559.41;5044569;28;20028;-82
2023/05/31 13:05:33;;;;;;;12.15;6.68;;;;;;;22.52;80.24;94545.72;5078738;28;20087;-82
2023/05/31 13:08:18;;;;;;;13.88;6.25;;;;;;;22.64;74.84;94552.94;5079057;28;20024;-82
2023/05/31 13:10:43;;;;;;;10.10;6.05;;;;;;;22.27;85.36;94553.78;5044739;28;20055;-82
2023/05/31 13:13:09;;;;;;;15.32;6.78;;;;;;;21.62;93.14;94555.28;5044892;28;20082;-82
2023/05/31 13:15:34;;;;;;;14.80;7.50;;;;;;;20.95;95.03;94556.19;5060661;28;20028;-82
2023/05/31 13:17:59;;;;;;;12.40;5.80;;;;;;;21.16;99.31;94555.34;5060998;28;20020;-82
2023/05/31 13:20:44;;;;;;;11.93;5.82;;;;;;;21.02;99.68;94563.66;5078653;28;20034;-82